»·PEaware :: SWA3184 KELP-KPHX

SWA3184 :: KELP-KPHX

FLIGHT INFORMATION

Flight Status: Arrived
Operator:
Southwest Airlines
More flights by this operator :: More flights under this callsign
Pilot: Kevin C. (35193)
Aircraft: BOEING 737-700
(B737)
More flights by this aircraft type
Origin: KELP El Paso Intl
United States
Destination: KPHX Phoenix Sky Harbor Intl
United States
More flights between these airports :: More routes between these airports
Route: ATKNN5 ATKNN DRRVR PINNG1
File this flight plan on PilotEdge
Remarks: RMK / SIMBRIEF
Altitude:
(Current/Filed)
36,000ft
Speed:
(Current/Filed)
450kts
Departed: 11-Feb-24 10:56 PM
Arrived: 11-Feb-24 11:40 PM
Distance/Time
Traveled:
300nm/0:44
Distance/Time
To Go:
Arrived

Flight Plot

Page will automatically refresh every two minutes.

Flight plan parsing failed; only flown route is shown


Map Options




Map Legend


Flown Route
Filed Route
Departure Airport
Arrival Airport
Navaid (VOR, NDB)
Fix

Horizontal Profiles

Position Reports

Time Latitude Longitude Heading Altitude Ground
Speed
11-Feb-24 22:18 31.799792 -106.393722 345 3930ft 0kts
11-Feb-24 22:19 31.799792 -106.393722 345 3930ft 0kts
11-Feb-24 22:20 31.799792 -106.393722 345 3930ft 0kts
11-Feb-24 22:21 31.799792 -106.393722 345 3930ft 0kts
11-Feb-24 22:22 31.799792 -106.393722 345 3930ft 0kts
11-Feb-24 22:23 31.799792 -106.393722 345 3930ft 0kts
11-Feb-24 22:24 31.799792 -106.393722 345 3930ft 0kts
11-Feb-24 22:25 31.799792 -106.393722 345 3930ft 0kts
11-Feb-24 22:26 31.799792 -106.393722 345 3930ft 0kts
11-Feb-24 22:27 31.799792 -106.393722 345 3930ft 0kts
11-Feb-24 22:28 31.799792 -106.393722 345 3930ft 0kts
11-Feb-24 22:29 31.799792 -106.393722 345 3930ft 0kts
11-Feb-24 22:30 31.799792 -106.393722 345 3930ft 0kts
11-Feb-24 22:31 31.799792 -106.393722 345 3930ft 0kts
11-Feb-24 22:32 31.799792 -106.393722 345 3930ft 0kts
11-Feb-24 22:33 31.799792 -106.393722 345 3930ft 0kts
11-Feb-24 22:34 31.799792 -106.393722 345 3930ft 0kts
11-Feb-24 22:35 31.799482 -106.393629 345 3930ft 2kts
11-Feb-24 22:36 31.799133 -106.393525 346 3931ft 0kts
11-Feb-24 22:37 31.799331 -106.393582 346 3930ft 0kts
11-Feb-24 22:38 31.799524 -106.393637 345 3930ft 0kts
11-Feb-24 22:40 31.799792 -106.393722 345 3930ft 0kts
11-Feb-24 22:41 31.799792 -106.393722 345 3930ft 0kts
11-Feb-24 22:42 31.799207 -106.393533 344 3931ft 2kts
11-Feb-24 22:43 31.799200 -106.393525 348 3931ft 0kts
11-Feb-24 22:44 31.799200 -106.393525 348 3931ft 0kts
11-Feb-24 22:45 31.799200 -106.393525 348 3931ft 0kts
11-Feb-24 22:46 31.799200 -106.393525 348 3931ft 0kts
11-Feb-24 22:47 31.799200 -106.393525 348 3931ft 0kts
11-Feb-24 22:48 31.799438 -106.392646 74 3932ft 12kts
11-Feb-24 22:49 31.799907 -106.388327 89 3935ft 14kts
11-Feb-24 22:50 31.799915 -106.383501 89 3942ft 14kts
11-Feb-24 22:51 31.799830 -106.377167 93 3948ft 23kts
11-Feb-24 22:52 31.799443 -106.369383 93 3960ft 22kts
11-Feb-24 22:53 31.799069 -106.361824 93 3966ft 17kts
11-Feb-24 22:54 31.800701 -106.361631 274 3968ft 18kts
11-Feb-24 22:55 31.797209 -106.409872 229 6443ft 190kts
11-Feb-24 22:56 31.767460 -106.463237 253 8872ft 270kts
11-Feb-24 22:57 31.787789 -106.551425 306 11370ft 337kts
11-Feb-24 22:58 31.818648 -106.657014 283 15320ft 359kts
11-Feb-24 22:59 31.835429 -106.775703 284 18736ft 377kts
11-Feb-24 23:00 31.853177 -106.898961 284 21885ft 386kts
11-Feb-24 23:01 31.871380 -107.025386 284 24544ft 398kts
11-Feb-24 23:02 31.890016 -107.155783 283 26666ft 411kts
11-Feb-24 23:03 31.909118 -107.290487 283 28617ft 422kts
11-Feb-24 23:04 31.928505 -107.428366 283 30511ft 428kts
11-Feb-24 23:05 31.947511 -107.564859 282 32689ft 419kts
11-Feb-24 23:06 31.966071 -107.698891 282 34591ft 411kts
11-Feb-24 23:07 31.984388 -107.832158 281 35951ft 411kts
11-Feb-24 23:08 32.002634 -107.966027 281 36210ft 413kts
11-Feb-24 23:09 32.080425 -108.546460 280 36241ft 405kts
11-Feb-24 23:10 32.180789 -109.324763 284 36208ft 406kts
11-Feb-24 23:11 32.209350 -109.453915 285 36214ft 408kts
11-Feb-24 23:12 32.237428 -109.584322 285 36224ft 412kts
11-Feb-24 23:13 32.265134 -109.716106 284 36233ft 414kts
11-Feb-24 23:14 32.292754 -109.848274 284 36233ft 414kts
11-Feb-24 23:16 32.320129 -109.979967 284 36247ft 412kts
11-Feb-24 23:17 32.347386 -110.111828 284 36258ft 411kts
11-Feb-24 23:18 32.388303 -110.311147 284 36265ft 411kts
11-Feb-24 23:19 32.441919 -110.575141 285 30512ft 402kts
11-Feb-24 23:20 32.521444 -110.799894 306 26613ft 354kts
11-Feb-24 23:21 32.623532 -110.980550 305 23492ft 375kts
11-Feb-24 23:22 32.680464 -111.080387 305 21713ft 356kts
11-Feb-24 23:23 32.735219 -111.176728 305 20063ft 349kts
11-Feb-24 23:24 32.787793 -111.269679 305 18478ft 335kts
11-Feb-24 23:25 32.839621 -111.361614 305 16627ft 332kts
11-Feb-24 23:26 32.889772 -111.450796 305 15050ft 320kts
11-Feb-24 23:27 32.955496 -111.511116 338 13564ft 295kts
11-Feb-24 23:28 33.030913 -111.546768 338 12140ft 295kts
11-Feb-24 23:29 33.104218 -111.582516 338 10804ft 274kts
11-Feb-24 23:30 33.172017 -111.616110 337 9534ft 254kts
11-Feb-24 23:31 33.235550 -111.648035 338 8364ft 239kts
11-Feb-24 23:32 33.293333 -111.681820 337 7230ft 223kts
11-Feb-24 23:33 33.345300 -111.712190 338 6223ft 193kts
11-Feb-24 23:34 33.393814 -111.740440 338 5321ft 195kts
11-Feb-24 23:35 33.428272 -111.790697 312 4360ft 183kts
11-Feb-24 23:36 33.440415 -111.844387 286 3541ft 157kts
11-Feb-24 23:37 33.440785 -111.894050 284 2765ft 149kts
11-Feb-24 23:38 33.440792 -111.942551 285 1979ft 137kts
11-Feb-24 23:39 33.440899 -111.988158 279 1265ft 136kts
11-Feb-24 23:40 33.440834 -112.015967 262 1125ft 26kts
11-Feb-24 23:41 33.439746 -112.014563 90 1123ft 12kts
11-Feb-24 23:41 33.439742 -112.009828 90 1123ft 21kts
11-Feb-24 23:42 33.438442 -112.004677 180 1118ft 15kts
11-Feb-24 23:43 33.434003 -112.004680 181 1119ft 15kts
11-Feb-24 23:45 33.432828 -112.001011 89 1117ft 8kts
11-Feb-24 23:46 33.433587 -111.999776 40 1119ft 0kts
11-Feb-24 23:46 33.433587 -111.999776 40 1119ft 0kts
11-Feb-24 23:47 33.433587 -111.999776 40 1119ft 0kts
11-Feb-24 23:48 33.433587 -111.999776 40 1119ft 0kts

Navigation Log

Ident Type
Flight plan parsing failed, navigation log unavailable